Tug "trevor" — WCP6921 — position and weather

sailwx.info

Track history (hours):
 
Tides and Currents Weather Stations Pressure Air Temp Water Temp Dewpoint Dewpoint Depression Visibility Wind Speed Wind Dir Waves Ship Positions

Tug "trevor"

Owner: WEEKS MARINE, INC., CRANFORD, NJ. More information available from US FCC via Universal Licensing System and Coast Guard Vessel Documentation Center.

Last reported at 2014-Sep-13 03:06 UTC. Time now 2014-Oct-02 12:33 UTC.
Position N 29°23' W 090°44'.
Warning: this ship's position is 19 days out of date.

Length 21 m; draft 2.9 m.

Type: Towing. MMSI: 366643140.

Date/timePositionNaut miles runAvg speedWind from/ knotsBaromVisibWave heightAir tempDewpointWater temp
2014-Sep-13 03:06N 29°23' W 090°44'4 7.8
2014-Sep-13 02:33N 29°27' W 090°43'  
2014-Sep-03 19:16N 27°44' W 083°04'3 4.9
2014-Sep-03 18:33N 27°41' W 083°01'5 4.7
2014-Sep-03 17:29N 27°39' W 082°56'5 5.2
2014-Sep-03 16:32N 27°37' W 082°51'5 5.4
2014-Sep-03 15:33N 27°37' W 082°45'2 1.8
2014-Sep-03 14:33N 27°37' W 082°43'0 0.0
2014-Sep-03 13:33N 27°37' W 082°43'0 0.1
2014-Sep-03 12:33N 27°37' W 082°43'0 0.1
2014-Sep-03 11:33N 27°37' W 082°43'0 0.1
2014-Sep-03 10:33N 27°37' W 082°43'0 0.0
2014-Sep-03 09:33N 27°37' W 082°43'0 0.0
2014-Sep-03 08:33N 27°37' W 082°43'0 0.0
2014-Sep-03 07:33N 27°37' W 082°43'0 0.0
2014-Sep-03 06:33N 27°37' W 082°43'0 0.0
2014-Sep-03 05:33N 27°37' W 082°43'0 0.0
2014-Sep-03 04:33N 27°37' W 082°43'0 0.0
2014-Sep-03 03:33N 27°37' W 082°43'  
Track history (hours):
 
Tides and Currents Weather Stations Pressure Air Temp Water Temp Dewpoint Dewpoint Depression Visibility Wind Speed Wind Dir Waves Ship Positions

Tug "trevor"

Owner: WEEKS MARINE, INC., CRANFORD, NJ. More information available from US FCC via Universal Licensing System and Coast Guard Vessel Documentation Center.

Last reported at 2014-Sep-13 03:06 UTC. Time now 2014-Oct-02 12:33 UTC.
Position N 29°23' W 090°44'.
Warning: this ship's position is 19 days out of date.

Length 21 m; draft 2.9 m.

Type: Towing. MMSI: 366643140.

Date/timePositionNaut miles runAvg speedWind from/ knotsBaromVisibWave heightAir tempDewpointWater temp
2014-Sep-13 03:06N 29°23' W 090°44'4 7.8
2014-Sep-13 02:33N 29°27' W 090°43'  
2014-Sep-03 19:16N 27°44' W 083°04'3 4.9
2014-Sep-03 18:33N 27°41' W 083°01'5 4.7
2014-Sep-03 17:29N 27°39' W 082°56'5 5.2
2014-Sep-03 16:32N 27°37' W 082°51'5 5.4
2014-Sep-03 15:33N 27°37' W 082°45'2 1.8
2014-Sep-03 14:33N 27°37' W 082°43'0 0.0
2014-Sep-03 13:33N 27°37' W 082°43'0 0.1
2014-Sep-03 12:33N 27°37' W 082°43'0 0.1
2014-Sep-03 11:33N 27°37' W 082°43'0 0.1
2014-Sep-03 10:33N 27°37' W 082°43'0 0.0
2014-Sep-03 09:33N 27°37' W 082°43'0 0.0
2014-Sep-03 08:33N 27°37' W 082°43'0 0.0
2014-Sep-03 07:33N 27°37' W 082°43'0 0.0
2014-Sep-03 06:33N 27°37' W 082°43'0 0.0
2014-Sep-03 05:33N 27°37' W 082°43'0 0.0
2014-Sep-03 04:33N 27°37' W 082°43'0 0.0
2014-Sep-03 03:33N 27°37' W 082°43'  

Dump ship's entire track history